createdAt,value
2022-11-30T00:03:31.686Z,960.82
2022-11-30T00:06:11.828Z,960.81
2022-11-30T00:08:51.478Z,960.78
2022-11-30T00:11:16.438Z,960.71
2022-11-30T00:14:12.763Z,960.73
2022-11-30T00:19:45.228Z,960.77
2022-11-30T00:24:09.678Z,960.77
2022-11-30T00:25:07.925Z,960.74
2022-11-30T00:26:07.926Z,960.70
2022-11-30T00:27:07.903Z,960.72
2022-11-30T00:35:08.679Z,960.74
2022-11-30T00:46:35.778Z,960.74
2022-11-30T00:47:46.352Z,960.71
2022-11-30T00:56:55.725Z,960.76
2022-11-30T00:57:55.682Z,960.78
2022-11-30T01:04:47.338Z,960.82
2022-11-30T01:10:53.055Z,960.79
2022-11-30T01:11:53.030Z,960.80
2022-11-30T01:12:53.043Z,960.78
2022-11-30T01:13:53.019Z,960.75
2022-11-30T01:19:44.053Z,960.78
2022-11-30T01:22:23.891Z,960.77
2022-11-30T01:23:33.571Z,960.71
2022-11-30T01:24:23.829Z,960.70
2022-11-30T01:28:56.373Z,960.79
2022-11-30T01:33:25.759Z,960.87
2022-11-30T01:43:19.535Z,960.91
2022-11-30T01:46:30.760Z,960.89
2022-11-30T01:47:30.670Z,960.92
2022-11-30T02:01:22.621Z,960.92
2022-11-30T02:04:38.242Z,960.91
2022-11-30T02:05:38.221Z,960.90
2022-11-30T02:06:38.202Z,960.84
2022-11-30T02:10:57.627Z,960.92
2022-11-30T02:14:41.566Z,960.96
2022-11-30T02:15:41.602Z,960.87
2022-11-30T02:22:39.135Z,960.90
2022-11-30T02:25:04.506Z,960.94
2022-11-30T02:31:41.202Z,960.94
2022-11-30T02:36:11.372Z,960.96
2022-11-30T02:39:22.002Z,960.94
2022-11-30T02:46:34.205Z,960.97
2022-11-30T02:51:47.113Z,960.95
2022-11-30T02:52:57.944Z,960.96
2022-11-30T02:56:38.477Z,960.94
2022-11-30T03:02:11.494Z,960.97
2022-11-30T03:12:06.124Z,960.93
2022-11-30T03:16:49.907Z,960.97
2022-11-30T03:32:50.331Z,961.01
2022-11-30T03:36:17.396Z,960.98
2022-11-30T03:38:57.952Z,960.98
2022-11-30T03:47:23.700Z,961.02
2022-11-30T03:50:03.139Z,961.02
2022-11-30T03:51:03.086Z,961.02
2022-11-30T03:54:15.451Z,961.01
2022-11-30T03:57:42.430Z,961.05
2022-11-30T04:00:06.652Z,961.01
2022-11-30T04:01:06.630Z,961.00
2022-11-30T04:04:04.509Z,960.94
2022-11-30T04:06:44.242Z,961.00
2022-11-30T04:07:44.410Z,961.05
2022-11-30T04:08:44.179Z,961.03
2022-11-30T04:09:44.141Z,961.03
2022-11-30T04:10:44.150Z,961.05
2022-11-30T04:11:44.240Z,961.07
2022-11-30T04:12:44.131Z,961.03
2022-11-30T04:13:44.281Z,961.01
2022-11-30T04:14:44.179Z,960.95
2022-11-30T04:15:44.126Z,960.98
2022-11-30T04:16:44.084Z,960.99
2022-11-30T04:17:44.050Z,960.97
2022-11-30T04:18:44.048Z,960.96
2022-11-30T04:35:59.251Z,961.04
2022-11-30T04:39:49.581Z,961.02
2022-11-30T04:40:49.508Z,961.03
2022-11-30T04:45:48.411Z,960.98
2022-11-30T05:01:43.558Z,960.98
2022-11-30T05:02:47.583Z,960.96
2022-11-30T05:03:43.475Z,960.93
2022-11-30T05:12:15.388Z,960.92
2022-11-30T05:18:36.886Z,960.92
2022-11-30T05:22:06.103Z,960.98
2022-11-30T05:39:20.129Z,960.94
2022-11-30T05:41:48.531Z,960.96
2022-11-30T05:51:20.907Z,961.07
2022-11-30T05:52:20.895Z,961.08
2022-11-30T05:58:09.161Z,961.01
2022-11-30T06:03:19.709Z,960.98
2022-11-30T06:08:24.977Z,960.97
2022-11-30T06:16:13.769Z,960.95
2022-11-30T06:24:17.064Z,960.97
2022-11-30T06:26:59.704Z,961.00
2022-11-30T06:33:06.585Z,961.02
2022-11-30T06:36:36.471Z,961.04
2022-11-30T06:48:11.163Z,961.05
2022-11-30T06:57:46.699Z,961.12
2022-11-30T06:58:46.625Z,961.10
2022-11-30T07:30:28.335Z,961.15
2022-11-30T07:38:22.760Z,961.15
2022-11-30T07:42:21.032Z,961.20
2022-11-30T07:44:59.434Z,961.18
2022-11-30T07:45:58.525Z,961.23
2022-11-30T07:58:29.602Z,961.29
2022-11-30T08:00:53.407Z,961.28
2022-11-30T08:01:53.440Z,961.33
2022-11-30T08:02:53.318Z,961.36
2022-11-30T08:03:53.322Z,961.34
2022-11-30T08:04:53.278Z,961.33
2022-11-30T08:05:53.271Z,961.33
2022-11-30T08:06:53.265Z,961.33
2022-11-30T08:07:53.293Z,961.33
2022-11-30T08:08:53.289Z,961.34
2022-11-30T08:09:53.231Z,961.38
2022-11-30T08:10:53.238Z,961.36
2022-11-30T08:11:53.211Z,961.38
2022-11-30T08:12:53.181Z,961.38
2022-11-30T08:13:56.252Z,961.37
2022-11-30T08:15:18.652Z,961.35
2022-11-30T08:15:54.174Z,961.34
2022-11-30T08:16:53.181Z,961.32
2022-11-30T08:17:53.122Z,961.34
2022-11-30T08:18:53.140Z,961.34
2022-11-30T08:19:53.154Z,961.34
2022-11-30T08:20:53.132Z,961.37
2022-11-30T08:21:53.105Z,961.38
2022-11-30T08:22:53.076Z,961.41
2022-11-30T08:23:53.127Z,961.42
2022-11-30T08:24:53.072Z,961.41
2022-11-30T08:25:53.045Z,961.41
2022-11-30T08:26:53.035Z,961.43
2022-11-30T08:27:53.053Z,961.43
2022-11-30T08:28:56.045Z,961.42
2022-11-30T08:29:53.072Z,961.41
2022-11-30T08:30:53.045Z,961.45
2022-11-30T08:31:53.025Z,961.46
2022-11-30T08:32:52.973Z,961.44
2022-11-30T08:33:52.980Z,961.52
2022-11-30T08:34:52.946Z,961.53
2022-11-30T08:35:52.932Z,961.51
2022-11-30T08:36:52.960Z,961.53
2022-11-30T08:37:52.916Z,961.52
2022-11-30T08:38:52.905Z,961.56
2022-11-30T08:39:52.894Z,961.59
2022-11-30T08:40:53.116Z,961.60
2022-11-30T08:41:52.902Z,961.60
2022-11-30T08:42:52.865Z,961.64
2022-11-30T08:43:55.846Z,961.59
2022-11-30T08:44:53.816Z,961.61
2022-11-30T08:45:54.565Z,961.62
2022-11-30T08:46:53.167Z,961.63
2022-11-30T08:47:52.837Z,961.63
2022-11-30T08:49:02.362Z,961.64
2022-11-30T08:49:53.799Z,961.65
2022-11-30T08:50:52.816Z,961.64
2022-11-30T08:52:54.748Z,961.60
2022-11-30T08:53:53.777Z,961.65
2022-11-30T08:54:52.970Z,961.65
2022-11-30T16:50:55.591Z,962.02
2022-11-30T16:51:55.904Z,962.01
2022-11-30T16:52:55.563Z,961.94
2022-11-30T16:53:55.534Z,961.98
2022-11-30T16:54:55.547Z,961.97
2022-11-30T16:55:55.657Z,961.99
2022-11-30T16:56:55.526Z,961.97
2022-11-30T16:57:55.484Z,961.93
2022-11-30T16:58:55.498Z,962.01
2022-11-30T16:59:55.628Z,961.97
2022-11-30T17:00:59.020Z,961.99
2022-11-30T17:02:55.619Z,962.07
2022-11-30T17:03:58.445Z,962.00
2022-11-30T17:04:55.431Z,962.08
2022-11-30T17:05:55.461Z,962.07
2022-11-30T17:07:01.939Z,962.04
2022-11-30T17:07:55.487Z,962.06
2022-11-30T17:08:55.395Z,962.13
2022-11-30T17:09:55.451Z,962.11
2022-11-30T17:10:55.368Z,962.16
2022-11-30T17:11:55.374Z,962.16
2022-11-30T17:12:55.352Z,962.15
2022-11-30T17:13:55.323Z,962.13
2022-11-30T17:14:55.318Z,962.14
2022-11-30T17:15:55.309Z,962.19
2022-11-30T17:16:55.328Z,962.22
2022-11-30T17:17:55.287Z,962.28
2022-11-30T17:18:58.301Z,962.25
2022-11-30T17:19:55.417Z,962.26
2022-11-30T17:20:55.283Z,962.27
2022-11-30T17:21:55.244Z,962.30
2022-11-30T17:22:55.232Z,962.31
2022-11-30T17:23:55.247Z,962.34
2022-11-30T17:24:55.211Z,962.30
2022-11-30T17:25:55.203Z,962.38
2022-11-30T17:26:55.208Z,962.38
2022-11-30T17:27:55.250Z,962.36
2022-11-30T17:28:55.189Z,962.34
2022-11-30T17:29:55.405Z,962.40
2022-11-30T17:30:55.246Z,962.35
2022-11-30T17:31:55.170Z,962.38
2022-11-30T17:32:55.170Z,962.45
2022-11-30T17:33:58.142Z,962.42
2022-11-30T17:34:55.130Z,962.41
2022-11-30T17:35:55.087Z,962.45
2022-11-30T17:36:55.145Z,962.48
2022-11-30T17:37:55.077Z,962.49
2022-11-30T17:38:55.075Z,962.42
2022-11-30T17:39:55.101Z,962.42
2022-11-30T17:40:56.002Z,962.49
2022-11-30T17:41:56.010Z,962.46
2022-11-30T17:42:55.056Z,962.50
2022-11-30T17:43:55.042Z,962.51
2022-11-30T17:44:55.040Z,962.44
2022-11-30T17:45:55.040Z,962.51
2022-11-30T17:46:54.993Z,962.44
2022-11-30T17:47:55.008Z,962.44
2022-11-30T17:48:57.999Z,962.44
2022-11-30T17:49:55.074Z,962.44
2022-11-30T17:50:54.985Z,962.40
2022-11-30T17:51:54.942Z,962.42
2022-11-30T17:52:54.952Z,962.41
2022-11-30T17:53:54.911Z,962.40
2022-11-30T17:54:54.931Z,962.43
2022-11-30T17:55:54.920Z,962.42
2022-11-30T17:56:54.909Z,962.40
2022-11-30T17:57:54.902Z,962.42
2022-11-30T17:58:54.892Z,962.43
2022-11-30T17:59:54.940Z,962.42
2022-11-30T18:00:55.304Z,962.42
2022-11-30T18:01:54.908Z,962.39
2022-11-30T18:02:54.921Z,962.43
2022-11-30T18:03:57.843Z,962.42
2022-11-30T18:04:54.826Z,962.40
2022-11-30T18:05:54.824Z,962.44
2022-11-30T18:06:54.784Z,962.43
2022-11-30T18:07:54.844Z,962.38
2022-11-30T18:08:54.765Z,962.42
2022-11-30T18:09:54.823Z,962.42
2022-11-30T18:10:54.743Z,962.46
2022-11-30T18:11:54.781Z,962.44
2022-11-30T18:12:54.719Z,962.44
2022-11-30T18:13:54.749Z,962.46
2022-11-30T18:14:54.728Z,962.50
2022-11-30T18:15:54.725Z,962.49
2022-11-30T18:16:54.717Z,962.51
2022-11-30T18:17:54.665Z,962.52
2022-11-30T18:18:57.677Z,962.54
2022-11-30T18:19:54.695Z,962.58
2022-11-30T18:20:54.643Z,962.53
2022-11-30T18:21:54.678Z,962.57
2022-11-30T18:22:54.637Z,962.56
2022-11-30T18:23:54.636Z,962.62
2022-11-30T18:24:54.657Z,962.60
2022-11-30T18:25:54.596Z,962.64
2022-11-30T18:26:54.608Z,962.60
2022-11-30T18:27:54.568Z,962.60
2022-11-30T18:28:54.577Z,962.66
2022-11-30T18:29:54.547Z,962.64
2022-11-30T18:30:54.623Z,962.63
2022-11-30T18:31:54.554Z,962.66
2022-11-30T18:32:54.546Z,962.65
2022-11-30T18:33:57.579Z,962.64
2022-11-30T18:34:54.516Z,962.63
2022-11-30T18:35:54.529Z,962.64
2022-11-30T18:36:54.500Z,962.63
2022-11-30T18:37:54.522Z,962.69
2022-11-30T18:38:54.470Z,962.73
2022-11-30T18:39:54.455Z,962.73
2022-11-30T18:40:54.470Z,962.77
2022-11-30T18:41:54.457Z,962.71
2022-11-30T18:42:54.448Z,962.72
2022-11-30T18:43:54.402Z,962.76
2022-11-30T18:44:54.399Z,962.72
2022-11-30T18:45:54.439Z,962.77
2022-11-30T18:46:54.410Z,962.78
2022-11-30T18:47:54.402Z,962.80
2022-11-30T18:48:57.408Z,962.80
2022-11-30T18:49:54.407Z,962.79
2022-11-30T18:50:54.355Z,962.86
2022-11-30T18:51:54.356Z,962.85
2022-11-30T18:52:54.319Z,962.81
2022-11-30T18:53:54.332Z,962.85
2022-11-30T18:54:54.333Z,962.85
2022-11-30T18:55:54.380Z,962.83
2022-11-30T18:56:54.483Z,962.87
2022-11-30T18:57:54.290Z,962.86
2022-11-30T18:58:54.265Z,962.82
2022-11-30T18:59:54.293Z,962.83
2022-11-30T19:00:54.243Z,962.87
2022-11-30T19:01:54.345Z,962.88
2022-11-30T19:02:54.341Z,962.86
2022-11-30T19:03:57.224Z,962.83
2022-11-30T19:04:54.293Z,962.86
2022-11-30T19:05:54.209Z,962.85
2022-11-30T19:06:54.172Z,962.86
2022-11-30T19:07:54.260Z,962.84
2022-11-30T19:08:54.183Z,962.83
2022-11-30T19:09:54.329Z,962.84
2022-11-30T19:10:54.152Z,962.82
2022-11-30T19:11:55.156Z,962.87
2022-11-30T19:12:54.118Z,962.85
2022-11-30T19:13:54.136Z,962.84
2022-11-30T19:14:54.114Z,962.83
2022-11-30T19:15:54.086Z,962.85
2022-11-30T19:16:56.203Z,962.81
2022-11-30T19:17:54.085Z,962.87
2022-11-30T19:18:57.098Z,962.80
2022-11-30T19:19:54.083Z,962.83
2022-11-30T19:20:54.037Z,962.75
2022-11-30T19:21:54.021Z,962.77
2022-11-30T19:22:54.016Z,962.77
2022-11-30T19:23:54.058Z,962.77
2022-11-30T19:24:54.026Z,962.80
2022-11-30T19:25:53.977Z,962.80
2022-11-30T19:26:54.012Z,962.77
2022-11-30T19:27:53.998Z,962.76
2022-11-30T19:28:53.955Z,962.79
2022-11-30T19:29:53.966Z,962.83
2022-11-30T19:30:54.046Z,962.77
2022-11-30T19:31:53.925Z,962.76
2022-11-30T19:32:53.926Z,962.75
2022-11-30T19:33:57.859Z,962.84
2022-11-30T19:34:53.906Z,962.80
2022-11-30T19:35:53.953Z,962.78
2022-11-30T19:36:53.877Z,962.87
2022-11-30T19:37:53.868Z,962.78
2022-11-30T19:38:53.847Z,962.79
2022-11-30T19:39:53.877Z,962.80
2022-11-30T19:40:53.856Z,962.78
2022-11-30T19:41:53.822Z,962.82
2022-11-30T19:42:53.847Z,962.79
2022-11-30T19:43:58.173Z,962.84
2022-11-30T19:44:53.827Z,962.83
2022-11-30T19:45:53.824Z,962.82
2022-11-30T19:46:53.836Z,962.82
2022-11-30T19:47:53.767Z,962.82
2022-11-30T19:48:57.709Z,962.86
2022-11-30T19:49:53.752Z,962.83
2022-11-30T19:50:53.730Z,962.82
2022-11-30T19:51:53.750Z,962.79
2022-11-30T19:52:53.740Z,962.79
2022-11-30T19:53:53.740Z,962.77
2022-11-30T19:54:53.715Z,962.78
2022-11-30T19:55:53.701Z,962.76
2022-11-30T19:56:53.790Z,962.80
2022-11-30T19:58:53.671Z,962.80
2022-11-30T19:59:54.663Z,962.76
2022-11-30T20:00:53.627Z,962.77
2022-11-30T20:01:53.693Z,962.76
2022-11-30T20:02:53.676Z,962.78
2022-11-30T20:03:56.600Z,962.78
2022-11-30T20:04:53.634Z,962.78
2022-11-30T20:05:53.613Z,962.77
2022-11-30T20:06:53.605Z,962.80
2022-11-30T20:07:53.755Z,962.80
2022-11-30T20:08:53.570Z,962.80
2022-11-30T20:09:53.538Z,962.75
2022-11-30T20:10:53.561Z,962.76
2022-11-30T20:11:53.549Z,962.73
2022-11-30T20:12:53.532Z,962.69
2022-11-30T20:13:53.524Z,962.73
2022-11-30T20:14:53.490Z,962.70
2022-11-30T20:15:53.525Z,962.70
2022-11-30T20:16:53.495Z,962.71
2022-11-30T20:17:54.436Z,962.72
2022-11-30T20:18:56.444Z,962.70
2022-11-30T20:19:53.484Z,962.67
2022-11-30T20:20:53.452Z,962.66
2022-11-30T20:21:53.413Z,962.67
2022-11-30T20:22:53.434Z,962.63
2022-11-30T20:23:53.402Z,962.64
2022-11-30T20:24:53.416Z,962.59
2022-11-30T20:25:53.375Z,962.63
2022-11-30T20:26:53.390Z,962.67
2022-11-30T20:27:53.386Z,962.60
2022-11-30T20:28:53.344Z,962.63
2022-11-30T20:29:53.377Z,962.65
2022-11-30T20:30:53.511Z,962.66
2022-11-30T20:31:53.347Z,962.64
2022-11-30T20:32:53.337Z,962.62
2022-11-30T20:33:56.297Z,962.67
2022-11-30T20:34:53.325Z,962.64
2022-11-30T20:35:53.275Z,962.61
2022-11-30T20:36:53.289Z,962.63
2022-11-30T20:37:53.274Z,962.60
2022-11-30T20:38:53.246Z,962.60
2022-11-30T20:39:53.237Z,962.64
2022-11-30T20:40:53.229Z,962.60
2022-11-30T20:41:53.213Z,962.59
2022-11-30T20:42:53.247Z,962.60
2022-11-30T20:43:53.199Z,962.62
2022-11-30T20:44:53.190Z,962.57
2022-11-30T20:45:53.235Z,962.58
2022-11-30T20:46:53.421Z,962.57
2022-11-30T20:47:53.177Z,962.60
2022-11-30T20:48:56.172Z,962.59
2022-11-30T20:49:53.163Z,962.63
2022-11-30T20:51:28.213Z,962.62
2022-11-30T20:51:54.132Z,962.65
2022-11-30T20:52:53.117Z,962.58
2022-11-30T20:53:53.108Z,962.62
2022-11-30T20:54:53.138Z,962.58
2022-11-30T20:55:53.105Z,962.58
2022-11-30T20:56:53.069Z,962.60
2022-11-30T20:57:53.052Z,962.58
2022-11-30T20:58:53.069Z,962.56
2022-11-30T20:59:53.058Z,962.59
2022-11-30T21:00:53.038Z,962.58
2022-11-30T21:01:53.085Z,962.58
2022-11-30T21:02:53.059Z,962.62
2022-11-30T21:03:55.999Z,962.63
2022-11-30T21:04:53.072Z,962.62
2022-11-30T21:05:53.035Z,962.62
2022-11-30T21:06:53.031Z,962.65
2022-11-30T21:07:53.079Z,962.57
2022-11-30T21:08:52.955Z,962.60
2022-11-30T21:09:52.987Z,962.62
2022-11-30T21:10:52.972Z,962.60
2022-11-30T21:11:53.103Z,962.62
2022-11-30T21:12:52.944Z,962.65
2022-11-30T21:13:52.895Z,962.68
2022-11-30T21:14:52.894Z,962.69
2022-11-30T21:15:52.973Z,962.74
2022-11-30T21:16:52.895Z,962.72
2022-11-30T21:17:52.882Z,962.73
2022-11-30T21:18:55.868Z,962.73
2022-11-30T21:19:52.875Z,962.72
2022-11-30T21:20:52.861Z,962.73
2022-11-30T21:21:52.985Z,962.73
2022-11-30T21:22:52.823Z,962.76
2022-11-30T21:23:52.792Z,962.75
2022-11-30T21:24:52.782Z,962.69
2022-11-30T21:25:52.904Z,962.77
2022-11-30T21:26:53.742Z,962.76
2022-11-30T21:27:54.960Z,962.74
2022-11-30T21:28:52.735Z,962.74
2022-11-30T21:29:52.727Z,962.73
2022-11-30T21:30:52.783Z,962.73
2022-11-30T21:31:52.749Z,962.74
2022-11-30T21:32:52.705Z,962.73
2022-11-30T21:33:55.721Z,962.75
2022-11-30T21:34:52.698Z,962.78
2022-11-30T21:35:52.668Z,962.75
2022-11-30T21:36:52.678Z,962.75
2022-11-30T21:37:52.706Z,962.74
2022-11-30T21:38:52.647Z,962.72
2022-11-30T21:39:53.659Z,962.68
2022-11-30T21:40:52.648Z,962.73
2022-11-30T21:41:52.668Z,962.76
2022-11-30T21:42:52.599Z,962.78
2022-11-30T21:43:52.625Z,962.79
2022-11-30T21:44:52.657Z,962.78
2022-11-30T21:45:52.606Z,962.75
2022-11-30T21:46:52.611Z,962.73
2022-11-30T21:47:52.577Z,962.79
2022-11-30T21:48:55.560Z,962.78
2022-11-30T21:49:52.548Z,962.71
2022-11-30T21:50:52.548Z,962.76
2022-11-30T21:51:52.508Z,962.74
2022-11-30T21:52:52.519Z,962.78
2022-11-30T21:53:52.517Z,962.74
2022-11-30T21:54:52.499Z,962.72
2022-11-30T21:55:55.674Z,962.73
2022-11-30T21:56:52.492Z,962.77
2022-11-30T21:57:52.582Z,962.75
2022-11-30T21:58:52.432Z,962.80
2022-11-30T21:59:52.500Z,962.77
2022-11-30T22:00:52.452Z,962.78
2022-11-30T22:01:52.409Z,962.77
2022-11-30T22:02:52.481Z,962.76
2022-11-30T22:03:55.448Z,962.75
2022-11-30T22:04:52.589Z,962.73
2022-11-30T22:05:52.394Z,962.73
2022-11-30T22:06:52.389Z,962.76
2022-11-30T22:07:52.409Z,962.72
2022-11-30T22:08:52.363Z,962.71
2022-11-30T22:09:52.323Z,962.73
2022-11-30T22:10:52.315Z,962.72
2022-11-30T22:11:52.302Z,962.74
2022-11-30T22:12:52.323Z,962.73
2022-11-30T22:13:52.315Z,962.77
2022-11-30T22:14:52.271Z,962.73
2022-11-30T22:15:52.371Z,962.76
2022-11-30T22:16:52.258Z,962.71
2022-11-30T22:17:52.272Z,962.76
2022-11-30T22:18:56.193Z,962.72
2022-11-30T22:19:52.244Z,962.73
2022-11-30T22:20:52.231Z,962.73
2022-11-30T22:21:52.283Z,962.71
2022-11-30T22:22:52.303Z,962.71
2022-11-30T22:23:52.184Z,962.75
2022-11-30T22:24:52.174Z,962.76
2022-11-30T22:25:52.157Z,962.75
2022-11-30T22:26:52.163Z,962.78
2022-11-30T22:27:52.147Z,962.77
2022-11-30T22:28:52.152Z,962.78
2022-11-30T22:29:52.157Z,962.72
2022-11-30T22:32:46.921Z,962.79
2022-11-30T22:33:46.902Z,962.76
2022-11-30T22:34:46.873Z,962.73
2022-11-30T22:35:56.691Z,962.71
2022-11-30T22:36:55.449Z,962.70
2022-11-30T22:37:55.038Z,962.68
2022-11-30T22:38:46.843Z,962.71
2022-11-30T22:42:12.777Z,962.69
2022-11-30T22:43:24.032Z,962.67
2022-11-30T22:44:12.716Z,962.65
2022-11-30T22:45:12.706Z,962.68
2022-11-30T22:46:12.785Z,962.66
2022-11-30T22:47:12.684Z,962.67
2022-11-30T22:48:12.696Z,962.68
2022-11-30T22:51:50.884Z,962.72
2022-11-30T22:53:05.693Z,962.68
2022-11-30T22:56:40.934Z,962.70
2022-11-30T22:59:35.886Z,962.71
2022-11-30T23:00:35.866Z,962.75
2022-11-30T23:01:35.852Z,962.71
2022-11-30T23:02:35.897Z,962.73
2022-11-30T23:03:35.987Z,962.74
2022-11-30T23:04:35.876Z,962.77
2022-11-30T23:05:45.862Z,962.71
2022-11-30T23:08:46.239Z,962.75
2022-11-30T23:09:46.375Z,962.74
2022-11-30T23:12:09.994Z,962.75
2022-11-30T23:15:09.818Z,962.74
2022-11-30T23:17:48.637Z,962.73
2022-11-30T23:21:53.195Z,962.76
2022-11-30T23:25:04.416Z,962.69
2022-11-30T23:27:29.354Z,962.64
2022-11-30T23:28:29.189Z,962.66
2022-11-30T23:29:29.218Z,962.62
2022-11-30T23:30:29.179Z,962.64
2022-11-30T23:31:32.934Z,962.61
2022-11-30T23:34:07.713Z,962.55
2022-11-30T23:35:07.740Z,962.59
2022-11-30T23:36:07.710Z,962.58
2022-11-30T23:39:02.711Z,962.52
2022-11-30T23:41:41.546Z,962.55
2022-11-30T23:42:41.612Z,962.53
2022-11-30T23:43:41.392Z,962.53
2022-11-30T23:44:41.404Z,962.52
2022-11-30T23:45:51.736Z,962.54
2022-11-30T23:48:06.473Z,962.53
2022-11-30T23:49:06.295Z,962.53
2022-11-30T23:50:06.285Z,962.54
2022-11-30T23:52:29.401Z,962.50
2022-11-30T23:56:11.248Z,962.50
